createdAt,value
2023-10-02T00:02:11.490Z,101350.88
2023-10-02T00:04:38.191Z,101352.50
2023-10-02T00:07:07.669Z,101362.63
2023-10-02T00:09:38.471Z,101361.06
2023-10-02T00:12:07.213Z,101357.72
2023-10-02T00:14:36.123Z,101354.13
2023-10-02T00:17:03.361Z,101354.56
2023-10-02T00:19:34.274Z,101364.31
2023-10-02T00:22:01.256Z,101366.22
2023-10-02T00:24:31.243Z,101368.88
2023-10-02T00:27:00.533Z,101371.66
2023-10-02T00:29:27.351Z,101357.06
2023-10-02T00:31:57.602Z,101368.41
2023-10-02T00:34:28.320Z,101359.75
2023-10-02T00:36:55.315Z,101359.34
2023-10-02T00:39:25.161Z,101365.94
2023-10-02T00:41:52.615Z,101370.63
2023-10-02T00:44:26.832Z,101379.88
2023-10-02T00:46:56.664Z,101378.66
2023-10-02T00:49:23.428Z,101382.66
2023-10-02T00:51:50.188Z,101386.03
2023-10-02T00:54:16.876Z,101384.16
2023-10-02T00:56:46.047Z,101378.88
2023-10-02T00:59:16.433Z,101388.66
2023-10-02T01:01:49.509Z,101392.88
2023-10-02T01:04:16.289Z,101396.31
2023-10-02T01:06:46.881Z,101400.31
2023-10-02T01:09:13.981Z,101402.56
2023-10-02T01:11:41.118Z,101395.75
2023-10-02T01:14:07.887Z,101396.13
2023-10-02T01:16:34.930Z,101388.69
2023-10-02T01:19:02.213Z,101402.88
2023-10-02T01:21:29.999Z,101398.13
2023-10-02T01:23:56.705Z,101397.88
2023-10-02T01:26:26.172Z,101402.56
2023-10-02T01:28:53.261Z,101395.84
2023-10-02T01:31:20.103Z,101398.78
2023-10-02T01:33:49.856Z,101397.41
2023-10-02T01:36:16.576Z,101401.06
2023-10-02T01:38:43.309Z,101393.59
2023-10-02T01:41:10.109Z,101402.47
2023-10-02T01:43:45.333Z,101395.81
2023-10-02T01:46:27.644Z,101397.47
2023-10-02T01:48:54.394Z,101400.03
2023-10-02T01:51:24.574Z,101388.69
2023-10-02T01:54:02.503Z,101402.03
2023-10-02T01:56:33.815Z,101393.09
2023-10-02T01:59:01.565Z,101403.75
2023-10-02T02:01:31.602Z,101396.81
2023-10-02T02:04:01.546Z,101406.53
2023-10-02T02:06:28.686Z,101403.19
2023-10-02T02:08:58.196Z,101412.13
2023-10-02T02:11:25.866Z,101409.16
2023-10-02T02:13:54.469Z,101413.34
2023-10-02T02:16:26.095Z,101418.88
2023-10-02T02:18:54.183Z,101421.72
2023-10-02T02:21:30.046Z,101420.38
2023-10-02T02:24:00.035Z,101418.13
2023-10-02T02:26:30.212Z,101419.53
2023-10-02T02:29:06.527Z,101419.00
2023-10-02T02:31:33.749Z,101416.81
2023-10-02T02:34:04.065Z,101423.44
2023-10-02T02:36:33.147Z,101420.09
2023-10-02T02:38:59.814Z,101413.44
2023-10-02T02:41:26.560Z,101417.38
2023-10-02T02:43:53.405Z,101417.63
2023-10-02T02:46:22.379Z,101422.94
2023-10-02T02:48:49.091Z,101421.53
2023-10-02T02:51:15.854Z,101417.38
2023-10-02T02:53:42.631Z,101427.09
2023-10-02T02:56:09.602Z,101421.06
2023-10-02T02:58:36.368Z,101424.75
2023-10-02T03:01:03.221Z,101427.84
2023-10-02T03:03:30.694Z,101427.59
2023-10-02T03:05:57.493Z,101428.19
2023-10-02T03:08:24.281Z,101425.31
2023-10-02T03:10:51.192Z,101426.69
2023-10-02T03:13:18.196Z,101423.03
2023-10-02T03:15:46.090Z,101433.00
2023-10-02T03:18:17.121Z,101429.31
2023-10-02T03:20:44.086Z,101426.84
2023-10-02T03:23:11.009Z,101438.28
2023-10-02T03:25:37.700Z,101430.50
2023-10-02T03:28:04.614Z,101437.97
2023-10-02T03:30:31.564Z,101426.84
2023-10-02T03:33:00.462Z,101423.53
2023-10-02T03:35:27.232Z,101427.94
2023-10-02T03:37:53.903Z,101430.72
2023-10-02T03:40:20.716Z,101431.28
2023-10-02T03:42:50.258Z,101439.66
2023-10-02T03:45:16.995Z,101443.34
2023-10-02T03:47:43.700Z,101455.81
2023-10-02T03:50:13.690Z,101441.34
2023-10-02T03:52:40.944Z,101447.78
2023-10-02T03:55:08.023Z,101451.44
2023-10-02T03:57:34.854Z,101456.41
2023-10-02T04:00:02.900Z,101450.19
2023-10-02T04:02:29.782Z,101452.44
2023-10-02T04:04:56.545Z,101451.84
2023-10-02T04:07:25.267Z,101452.94
2023-10-02T04:09:51.965Z,101460.13
2023-10-02T04:12:18.810Z,101455.41
2023-10-02T04:14:45.799Z,101467.06
2023-10-02T04:17:12.783Z,101462.63
2023-10-02T04:19:43.427Z,101465.38
2023-10-02T04:22:10.658Z,101464.56
2023-10-02T04:24:37.391Z,101466.78
2023-10-02T04:27:07.207Z,101470.66
2023-10-02T04:29:33.883Z,101462.97
2023-10-02T04:32:01.244Z,101467.13
2023-10-02T04:34:28.039Z,101481.91
2023-10-02T04:36:54.755Z,101471.91
2023-10-02T04:39:21.545Z,101469.66
2023-10-02T04:41:48.469Z,101472.44
2023-10-02T04:44:26.825Z,101473.56
2023-10-02T04:46:53.713Z,101470.53
2023-10-02T04:49:20.581Z,101471.91
2023-10-02T04:51:47.324Z,101476.31
2023-10-02T04:54:14.138Z,101477.75
2023-10-02T04:56:41.720Z,101484.69
2023-10-02T04:59:08.499Z,101474.94
2023-10-02T05:01:35.317Z,101478.25
2023-10-02T05:04:05.776Z,101488.81
2023-10-02T05:06:33.162Z,101489.09
2023-10-02T05:09:01.490Z,101491.28
2023-10-02T05:11:28.610Z,101496.22
2023-10-02T05:14:01.235Z,101497.09
2023-10-02T05:16:30.719Z,101493.16
2023-10-02T05:19:00.818Z,101503.50
2023-10-02T05:21:31.721Z,101508.47
2023-10-02T05:23:58.900Z,101513.72
2023-10-02T05:26:36.726Z,101510.56
2023-10-02T05:29:10.737Z,101514.91
2023-10-02T05:31:38.790Z,101509.00
2023-10-02T05:34:27.833Z,101517.66
2023-10-02T05:36:59.034Z,101523.25
2023-10-02T05:39:25.987Z,101526.44
2023-10-02T05:41:53.025Z,101529.41
2023-10-02T05:44:20.108Z,101535.13
2023-10-02T05:46:51.387Z,101541.06
2023-10-02T05:49:18.274Z,101544.28
2023-10-02T05:51:45.352Z,101542.63
2023-10-02T05:54:15.569Z,101541.06
2023-10-02T05:56:42.840Z,101546.00
2023-10-02T05:59:10.452Z,101547.97
2023-10-02T06:01:38.691Z,101549.78
2023-10-02T06:04:13.802Z,101552.13
2023-10-02T06:06:41.038Z,101546.34
2023-10-02T06:09:08.642Z,101557.13
2023-10-02T06:11:35.622Z,101561.47
2023-10-02T06:14:04.542Z,101560.75
2023-10-02T06:16:32.269Z,101557.09
2023-10-02T06:19:01.615Z,101564.91
2023-10-02T06:21:33.707Z,101561.78
2023-10-02T06:24:00.907Z,101570.16
2023-10-02T06:26:33.344Z,101568.94
2023-10-02T06:29:00.931Z,101579.50
2023-10-02T06:31:29.986Z,101571.91
2023-10-02T06:33:58.893Z,101577.63
2023-10-02T06:36:28.836Z,101586.53
2023-10-02T06:38:58.037Z,101582.81
2023-10-02T06:41:25.083Z,101589.03
2023-10-02T06:43:54.329Z,101582.53
2023-10-02T06:46:21.659Z,101590.78
2023-10-02T06:48:48.763Z,101592.09
2023-10-02T06:51:15.872Z,101597.91
2023-10-02T06:53:43.808Z,101596.25
2023-10-02T06:56:17.149Z,101597.13
2023-10-02T06:58:44.787Z,101599.41
2023-10-02T07:01:11.849Z,101589.28
2023-10-02T07:03:41.003Z,101592.59
2023-10-02T07:06:11.652Z,101582.28
2023-10-02T07:08:43.741Z,101593.88
2023-10-02T07:11:13.122Z,101591.69
2023-10-02T07:13:51.749Z,101584.88
2023-10-02T07:16:19.118Z,101589.78
2023-10-02T07:18:45.969Z,101586.59
2023-10-02T07:21:12.748Z,101588.38
2023-10-02T07:23:39.870Z,101593.19
2023-10-02T07:26:14.035Z,101596.47
2023-10-02T07:28:40.875Z,101604.97
2023-10-02T07:31:11.858Z,101603.97
2023-10-02T07:33:38.812Z,101601.06
2023-10-02T07:36:05.710Z,101599.81
2023-10-02T07:38:32.429Z,101603.25
2023-10-02T07:40:59.440Z,101607.69
2023-10-02T07:43:26.185Z,101605.19
2023-10-02T07:46:03.337Z,101606.72
2023-10-02T07:48:31.761Z,101608.50
2023-10-02T07:50:58.580Z,101608.31
2023-10-02T07:53:25.311Z,101604.75
2023-10-02T07:55:55.144Z,101614.09
2023-10-02T07:58:21.910Z,101616.28
2023-10-02T08:00:51.278Z,101616.56
2023-10-02T08:03:18.331Z,101619.91
2023-10-02T08:05:45.151Z,101621.78
2023-10-02T08:08:12.204Z,101618.63
2023-10-02T08:10:39.387Z,101625.16
2023-10-02T08:13:13.686Z,101623.16
2023-10-02T08:15:40.377Z,101617.53
2023-10-02T08:18:07.444Z,101625.59
2023-10-02T08:20:34.295Z,101626.59
2023-10-02T08:23:01.261Z,101632.59
2023-10-02T08:25:28.323Z,101633.38
2023-10-02T08:27:55.368Z,101633.00
2023-10-02T08:30:23.269Z,101632.88
2023-10-02T08:32:50.080Z,101637.81
2023-10-02T08:35:17.500Z,101633.38
2023-10-02T08:37:44.407Z,101632.16
2023-10-02T08:40:11.634Z,101626.84
2023-10-02T08:42:38.408Z,101623.66
2023-10-02T08:45:05.704Z,101630.09
2023-10-02T08:47:32.691Z,101634.16
2023-10-02T08:49:59.521Z,101633.81
2023-10-02T08:52:26.381Z,101639.28
2023-10-02T08:54:53.061Z,101628.56
2023-10-02T08:57:20.913Z,101631.34
2023-10-02T08:59:48.682Z,101633.16
2023-10-02T09:02:19.718Z,101633.19
2023-10-02T09:04:49.187Z,101639.47
2023-10-02T09:07:29.444Z,101635.19
2023-10-02T09:10:09.284Z,101642.13
2023-10-02T09:12:36.083Z,101644.09
2023-10-02T09:15:08.321Z,101633.84
2023-10-02T09:17:43.709Z,101634.50
2023-10-02T09:20:10.916Z,101638.34
2023-10-02T09:22:37.807Z,101632.53
2023-10-02T09:25:07.175Z,101632.22
2023-10-02T09:27:34.408Z,101636.34
2023-10-02T09:30:04.123Z,101634.06
2023-10-02T09:32:31.005Z,101635.19
2023-10-02T09:35:52.944Z,101623.47
2023-10-02T09:38:06.149Z,101628.91
2023-10-02T09:40:48.858Z,101633.22
2023-10-02T09:43:16.545Z,101626.44
2023-10-02T09:45:45.630Z,101619.16
2023-10-02T09:48:12.500Z,101626.78
2023-10-02T09:50:44.571Z,101623.59
2023-10-02T09:53:16.658Z,101624.63
2023-10-02T09:55:43.319Z,101623.94
2023-10-02T09:58:18.203Z,101616.72
2023-10-02T10:01:11.678Z,101621.72
2023-10-02T10:03:49.945Z,101625.06
2023-10-02T10:06:17.789Z,101621.19
2023-10-02T10:08:56.502Z,101625.69
2023-10-02T10:11:23.392Z,101620.13
2023-10-02T10:13:50.170Z,101619.16
2023-10-02T10:16:20.180Z,101619.00
2023-10-02T10:18:56.413Z,101622.34
2023-10-02T10:21:39.640Z,101615.72
2023-10-02T10:24:34.144Z,101611.75
2023-10-02T10:27:01.625Z,101602.69
2023-10-02T10:29:44.287Z,101611.13
2023-10-02T10:32:21.721Z,101606.53
2023-10-02T10:35:01.903Z,101599.41
2023-10-02T10:37:44.797Z,101593.59
2023-10-02T10:40:37.306Z,101588.16
2023-10-02T10:43:04.254Z,101588.78
2023-10-02T10:45:31.187Z,101595.22
2023-10-02T10:47:58.019Z,101588.03
2023-10-02T10:50:31.363Z,101587.94
2023-10-02T10:53:02.243Z,101573.72
2023-10-02T10:55:29.572Z,101572.50
2023-10-02T10:57:56.266Z,101565.94
2023-10-02T11:00:23.146Z,101559.78
2023-10-02T11:02:57.258Z,101568.72
2023-10-02T11:05:24.548Z,101571.69
2023-10-02T11:07:51.507Z,101565.38
2023-10-02T11:10:25.821Z,101562.44
2023-10-02T11:12:52.525Z,101561.47
2023-10-02T11:15:22.127Z,101556.31
2023-10-02T11:17:48.852Z,101552.84
2023-10-02T11:20:31.087Z,101558.25
2023-10-02T11:22:58.070Z,101544.31
2023-10-02T11:25:24.992Z,101538.53
2023-10-02T11:27:51.664Z,101544.25
2023-10-02T11:30:22.966Z,101550.69
2023-10-02T11:32:53.802Z,101541.53
2023-10-02T11:35:21.498Z,101538.81
2023-10-02T11:37:51.230Z,101543.41
2023-10-02T11:40:18.121Z,101533.94
2023-10-02T11:42:47.570Z,101538.81
2023-10-02T11:45:14.316Z,101536.84
2023-10-02T11:47:41.188Z,101535.13
2023-10-02T11:50:08.659Z,101534.69
2023-10-02T11:52:35.475Z,101539.03
2023-10-02T11:55:02.602Z,101536.28
2023-10-02T11:57:30.365Z,101538.75
2023-10-02T12:00:09.023Z,101532.84
2023-10-02T12:02:36.421Z,101539.28
2023-10-02T12:05:03.153Z,101523.34
2023-10-02T12:07:29.983Z,101533.69
2023-10-02T12:09:57.856Z,101526.50
2023-10-02T12:12:24.595Z,101522.75
2023-10-02T12:14:51.262Z,101527.91
2023-10-02T12:17:17.991Z,101522.06
2023-10-02T12:19:44.772Z,101525.00
2023-10-02T12:22:17.565Z,101529.53
2023-10-02T12:24:46.456Z,101522.78
2023-10-02T12:27:13.327Z,101525.56
2023-10-02T12:29:40.709Z,101511.56
2023-10-02T12:32:07.553Z,101513.31
2023-10-02T12:34:34.450Z,101515.66
2023-10-02T12:37:01.391Z,101508.09
2023-10-02T12:39:28.038Z,101511.97
2023-10-02T12:41:54.981Z,101506.97
2023-10-02T12:44:22.075Z,101505.47
2023-10-02T12:46:49.627Z,101508.16
2023-10-02T12:49:16.368Z,101510.16
2023-10-02T12:51:43.169Z,101504.31
2023-10-02T12:54:12.642Z,101501.59
2023-10-02T12:56:39.440Z,101486.81
2023-10-02T12:59:10.134Z,101487.69
2023-10-02T13:01:36.898Z,101480.88
2023-10-02T13:04:03.627Z,101478.34
2023-10-02T13:06:31.689Z,101485.56
2023-10-02T13:08:59.088Z,101477.50
2023-10-02T13:11:26.122Z,101472.91
2023-10-02T13:13:52.990Z,101476.25
2023-10-02T13:16:20.744Z,101475.44
2023-10-02T13:18:47.725Z,101466.28
2023-10-02T13:21:19.319Z,101465.59
2023-10-02T13:23:46.968Z,101461.59
2023-10-02T13:26:14.180Z,101473.22
2023-10-02T13:28:40.904Z,101467.41
2023-10-02T13:31:13.729Z,101460.88
2023-10-02T13:33:41.717Z,101456.66
2023-10-02T13:36:09.329Z,101460.06
2023-10-02T13:38:36.870Z,101460.25
2023-10-02T13:41:08.011Z,101457.34
2023-10-02T13:43:34.808Z,101457.41
2023-10-02T13:46:07.491Z,101459.56
2023-10-02T13:48:46.608Z,101452.28
2023-10-02T13:51:16.753Z,101448.28
2023-10-02T13:53:44.279Z,101448.97
2023-10-02T13:56:14.473Z,101446.50
2023-10-02T13:58:43.089Z,101443.22
2023-10-02T14:01:11.951Z,101448.00
2023-10-02T14:03:41.534Z,101449.31
2023-10-02T14:06:10.075Z,101436.41
2023-10-02T14:08:37.071Z,101433.50
2023-10-02T14:11:04.297Z,101426.34
2023-10-02T14:13:31.798Z,101429.16
2023-10-02T14:16:05.877Z,101429.75
2023-10-02T14:18:33.096Z,101429.38
2023-10-02T14:21:09.875Z,101436.19
2023-10-02T14:23:38.187Z,101429.34
2023-10-02T14:26:17.490Z,101422.31
2023-10-02T14:28:45.808Z,101430.03
2023-10-02T14:31:23.336Z,101425.78
2023-10-02T14:33:52.732Z,101427.56
2023-10-02T14:36:20.823Z,101421.47
2023-10-02T14:38:47.699Z,101418.44
2023-10-02T14:41:17.295Z,101416.03
2023-10-02T14:43:52.446Z,101422.44
2023-10-02T14:46:19.134Z,101419.75
2023-10-02T14:48:48.132Z,101425.25
2023-10-02T14:51:19.208Z,101416.66
2023-10-02T14:53:50.946Z,101410.22
2023-10-02T14:56:21.592Z,101418.66
2023-10-02T14:58:48.934Z,101426.56
2023-10-02T15:01:21.839Z,101423.06
2023-10-02T15:03:49.706Z,101419.31
2023-10-02T15:06:18.595Z,101425.63
2023-10-02T15:08:45.675Z,101428.56
2023-10-02T15:11:12.525Z,101422.56
2023-10-02T15:13:41.850Z,101418.81
2023-10-02T15:16:12.407Z,101410.53
2023-10-02T15:18:41.884Z,101426.47
2023-10-02T15:21:17.351Z,101427.16
2023-10-02T15:23:44.418Z,101428.53
2023-10-02T15:26:11.212Z,101427.69
2023-10-02T15:28:38.953Z,101426.44
2023-10-02T15:31:05.713Z,101435.13
2023-10-02T15:33:37.229Z,101428.38
2023-10-02T15:36:04.262Z,101429.53
2023-10-02T15:38:34.004Z,101432.75
2023-10-02T15:41:00.771Z,101424.34
2023-10-02T15:43:33.493Z,101429.66
2023-10-02T15:46:00.524Z,101428.91
2023-10-02T15:48:29.706Z,101426.63
2023-10-02T15:51:03.147Z,101425.47
2023-10-02T15:53:29.889Z,101422.16
2023-10-02T15:55:56.798Z,101425.16
2023-10-02T15:58:23.489Z,101428.66
2023-10-02T16:00:52.829Z,101423.25
2023-10-02T16:03:19.576Z,101435.84
2023-10-02T16:05:50.605Z,101438.19
2023-10-02T16:08:17.460Z,101440.19
2023-10-02T16:10:44.243Z,101439.03
2023-10-02T16:13:10.892Z,101442.69
2023-10-02T16:15:37.618Z,101445.34
2023-10-02T16:18:05.014Z,101437.41
2023-10-02T16:20:32.068Z,101442.03
2023-10-02T16:22:59.447Z,101444.66
2023-10-02T16:25:27.268Z,101451.09
2023-10-02T16:27:56.411Z,101448.75
2023-10-02T16:30:24.715Z,101445.94
2023-10-02T16:32:53.755Z,101453.03
2023-10-02T16:35:26.062Z,101449.56
2023-10-02T16:37:53.254Z,101451.06
2023-10-02T16:40:20.849Z,101457.47
2023-10-02T16:42:48.879Z,101455.31
2023-10-02T16:45:15.634Z,101465.50
2023-10-02T16:47:43.061Z,101461.69
2023-10-02T16:50:14.817Z,101463.47
2023-10-02T16:52:46.117Z,101460.31
2023-10-02T16:55:13.798Z,101463.25
2023-10-02T16:57:47.032Z,101461.09
2023-10-02T17:00:14.364Z,101462.88
2023-10-02T17:02:47.573Z,101454.78
2023-10-02T17:05:16.450Z,101458.59
2023-10-02T17:07:45.435Z,101468.13
2023-10-02T17:10:13.701Z,101462.13
2023-10-02T17:12:42.543Z,101465.41
2023-10-02T17:15:09.989Z,101453.97
2023-10-02T17:17:37.489Z,101454.81
2023-10-02T17:20:05.328Z,101460.03
2023-10-02T17:22:32.951Z,101465.97
2023-10-02T17:24:59.635Z,101456.91
2023-10-02T17:27:26.344Z,101447.81
2023-10-02T17:29:53.141Z,101454.38
2023-10-02T17:32:19.961Z,101469.34
2023-10-02T17:34:46.707Z,101467.19
2023-10-02T17:37:13.495Z,101470.28
2023-10-02T17:39:40.232Z,101465.00
2023-10-02T17:42:07.027Z,101466.78
2023-10-02T17:44:34.243Z,101470.94
2023-10-02T17:47:01.005Z,101472.91
2023-10-02T17:49:27.859Z,101471.81
2023-10-02T17:51:57.565Z,101472.03
2023-10-02T17:54:26.715Z,101465.28
2023-10-02T17:56:53.403Z,101476.47
2023-10-02T17:59:24.488Z,101479.28
2023-10-02T18:01:53.690Z,101480.22
2023-10-02T18:04:20.356Z,101476.53
2023-10-02T18:06:47.086Z,101467.75
2023-10-02T18:09:13.760Z,101471.75
2023-10-02T18:11:40.426Z,101473.63
2023-10-02T18:14:10.005Z,101468.13
2023-10-02T18:16:39.278Z,101473.91
2023-10-02T18:19:06.538Z,101471.97
2023-10-02T18:21:36.299Z,101472.09
2023-10-02T18:24:08.987Z,101465.06
2023-10-02T18:26:35.835Z,101478.88
2023-10-02T18:29:05.404Z,101471.94
2023-10-02T18:31:33.131Z,101476.91
2023-10-02T18:34:00.046Z,101470.66
2023-10-02T18:36:26.713Z,101476.56
2023-10-02T18:39:10.935Z,101476.28
2023-10-02T18:41:40.633Z,101476.38
2023-10-02T18:44:10.380Z,101469.06
2023-10-02T18:46:37.048Z,101481.06
2023-10-02T18:49:06.402Z,101465.41
2023-10-02T18:51:35.977Z,101479.63
2023-10-02T18:54:02.880Z,101474.31
2023-10-02T18:56:33.118Z,101466.19
2023-10-02T18:59:08.151Z,101485.22
2023-10-02T19:01:37.403Z,101478.00
2023-10-02T19:04:13.896Z,101483.06
2023-10-02T19:06:40.631Z,101481.19
2023-10-02T19:09:09.986Z,101486.59
2023-10-02T19:11:46.383Z,101481.09
2023-10-02T19:14:13.499Z,101477.50
2023-10-02T19:16:44.888Z,101476.25
2023-10-02T19:19:14.717Z,101466.22
2023-10-02T19:21:41.597Z,101483.38
2023-10-02T19:24:08.833Z,101480.72
2023-10-02T19:26:35.706Z,101480.72
2023-10-02T19:29:02.730Z,101474.06
2023-10-02T19:31:30.670Z,101477.19
2023-10-02T19:33:57.561Z,101484.22
2023-10-02T19:36:24.367Z,101479.88
2023-10-02T19:38:51.098Z,101473.88
2023-10-02T19:41:27.375Z,101471.78
2023-10-02T19:43:54.456Z,101470.78
2023-10-02T19:46:21.756Z,101478.34
2023-10-02T19:48:50.377Z,101480.28
2023-10-02T19:51:22.734Z,101478.34
2023-10-02T19:53:53.876Z,101480.97
2023-10-02T19:56:20.777Z,101477.59
2023-10-02T19:58:48.926Z,101472.06
2023-10-02T20:01:15.672Z,101476.09
2023-10-02T20:03:42.392Z,101477.31
2023-10-02T20:06:10.945Z,101470.78
2023-10-02T20:08:40.672Z,101468.31
2023-10-02T20:11:09.172Z,101471.72
2023-10-02T20:13:40.121Z,101470.88
2023-10-02T20:16:06.905Z,101475.44
2023-10-02T20:18:33.873Z,101468.81
2023-10-02T20:21:03.750Z,101472.72
2023-10-02T20:23:51.345Z,101474.41
2023-10-02T20:26:19.505Z,101469.72
2023-10-02T20:28:50.346Z,101473.41
2023-10-02T20:31:20.075Z,101480.97
2023-10-02T20:33:46.808Z,101471.84
2023-10-02T20:36:13.699Z,101479.13
2023-10-02T20:38:41.785Z,101474.97
2023-10-02T20:41:09.078Z,101472.47
2023-10-02T20:43:37.598Z,101477.00
2023-10-02T20:46:06.015Z,101476.34
2023-10-02T20:48:32.931Z,101480.28
2023-10-02T20:50:59.659Z,101481.41
2023-10-02T20:53:29.480Z,101487.31
2023-10-02T20:55:56.215Z,101498.47
2023-10-02T20:58:22.976Z,101485.69
2023-10-02T21:00:51.162Z,101481.13
2023-10-02T21:03:20.974Z,101476.00
2023-10-02T21:05:55.161Z,101486.13
2023-10-02T21:08:23.883Z,101483.63
2023-10-02T21:10:52.765Z,101488.38
2023-10-02T21:13:19.446Z,101488.66
2023-10-02T21:15:48.557Z,101484.81
2023-10-02T21:18:15.218Z,101484.00
2023-10-02T21:20:45.583Z,101484.56
2023-10-02T21:23:14.501Z,101485.41
2023-10-02T21:25:41.287Z,101481.78
2023-10-02T21:28:08.206Z,101494.66
2023-10-02T21:30:34.984Z,101486.81
2023-10-02T21:33:01.846Z,101486.59
2023-10-02T21:35:36.028Z,101488.47
2023-10-02T21:38:03.101Z,101489.06
2023-10-02T21:40:29.871Z,101478.75
2023-10-02T21:42:56.702Z,101479.06
2023-10-02T21:45:26.803Z,101480.72
2023-10-02T21:47:53.952Z,101472.94
2023-10-02T21:50:21.050Z,101476.88
2023-10-02T21:52:50.276Z,101479.94
2023-10-02T21:55:17.594Z,101477.16
2023-10-02T21:57:44.463Z,101468.56
2023-10-02T22:49:27.441Z,101476.28
2023-10-02T22:51:54.160Z,101474.41
2023-10-02T22:54:21.083Z,101479.09
2023-10-02T22:56:48.000Z,101479.06
2023-10-02T22:59:14.960Z,101478.78
2023-10-02T23:01:41.693Z,101480.47
2023-10-02T23:04:08.587Z,101468.75
2023-10-02T23:06:35.493Z,101470.19
2023-10-02T23:09:02.662Z,101483.81
2023-10-02T23:11:29.665Z,101476.88
2023-10-02T23:13:56.442Z,101482.16
2023-10-02T23:16:23.293Z,101483.81
2023-10-02T23:18:50.007Z,101483.81
2023-10-02T23:21:22.550Z,101481.63
2023-10-02T23:23:49.417Z,101478.00
2023-10-02T23:26:19.542Z,101471.34
2023-10-02T23:28:46.302Z,101471.94
2023-10-02T23:31:13.028Z,101480.06
2023-10-02T23:33:40.350Z,101476.47
2023-10-02T23:36:07.190Z,101472.84
2023-10-02T23:38:33.925Z,101473.13
2023-10-02T23:41:03.103Z,101473.44
2023-10-02T23:43:29.873Z,101478.47
2023-10-02T23:45:56.577Z,101470.94
2023-10-02T23:48:23.327Z,101471.88
2023-10-02T23:50:50.090Z,101474.16
2023-10-02T23:53:17.469Z,101479.97
2023-10-02T23:55:45.094Z,101471.44
2023-10-02T23:58:11.884Z,101467.53
